createdAt,value
2022-08-05T00:03:01.735Z,22.03
2022-08-05T00:06:29.256Z,22.00
2022-08-05T00:09:40.036Z,21.96
2022-08-05T00:12:56.734Z,21.92
2022-08-05T00:16:05.482Z,21.91
2022-08-05T00:19:16.018Z,21.88
2022-08-05T00:22:23.677Z,21.83
2022-08-05T00:25:45.713Z,21.78
2022-08-05T00:28:54.076Z,21.72
2022-08-05T00:32:12.837Z,21.69
2022-08-05T00:35:33.443Z,21.65
2022-08-05T00:38:42.806Z,21.60
2022-08-05T00:41:55.776Z,21.56
2022-08-05T00:45:03.778Z,21.54
2022-08-05T00:48:12.509Z,21.50
2022-08-05T00:51:51.481Z,21.47
2022-08-05T00:54:48.109Z,21.42
2022-08-05T00:57:59.029Z,21.40
2022-08-05T01:01:08.863Z,21.38
2022-08-05T01:04:20.139Z,21.36
2022-08-05T01:07:34.398Z,21.33
2022-08-05T01:10:52.141Z,21.26
2022-08-05T01:14:08.856Z,21.20
2022-08-05T01:17:22.943Z,21.15
2022-08-05T01:20:38.446Z,21.11
2022-08-05T01:24:14.112Z,21.05
2022-08-05T01:27:36.117Z,21.00
2022-08-05T01:31:03.226Z,20.95
2022-08-05T01:34:15.311Z,20.90
2022-08-05T01:37:37.979Z,20.87
2022-08-05T01:40:53.532Z,20.78
2022-08-05T01:44:09.901Z,20.72
2022-08-05T01:47:20.922Z,20.68
2022-08-05T01:50:32.302Z,20.60
2022-08-05T01:53:57.121Z,20.52
2022-08-05T01:58:09.771Z,20.44
2022-08-05T02:00:43.054Z,20.39
2022-08-05T02:03:54.934Z,20.31
2022-08-05T02:07:07.835Z,20.24
2022-08-05T02:10:17.649Z,20.18
2022-08-05T02:13:48.787Z,20.11
2022-08-05T02:17:05.414Z,20.02
2022-08-05T02:20:23.048Z,19.95
2022-08-05T02:23:37.635Z,19.91
2022-08-05T02:26:53.843Z,19.87
2022-08-05T02:30:04.230Z,19.83
2022-08-05T02:33:16.564Z,19.81
2022-08-05T03:31:57.335Z,19.18
2022-08-05T03:35:06.383Z,19.17
2022-08-05T03:38:16.289Z,19.17
2022-08-05T03:41:33.220Z,19.19
2022-08-05T03:44:45.973Z,19.21
2022-08-05T03:47:56.802Z,19.31
2022-08-05T03:52:49.352Z,19.50
2022-08-05T03:55:54.711Z,19.65
2022-08-05T03:58:19.195Z,19.88
2022-08-05T04:01:32.184Z,20.08
2022-08-05T04:04:41.943Z,20.28
2022-08-05T04:07:58.707Z,20.49
2022-08-05T04:11:09.875Z,20.67
2022-08-05T04:14:19.647Z,20.84
2022-08-05T04:17:56.325Z,21.01
2022-08-05T04:21:05.899Z,21.19
2022-08-05T04:24:19.319Z,21.36
2022-08-05T04:27:42.217Z,21.50
2022-08-05T04:30:51.801Z,21.65
2022-08-05T04:34:19.980Z,21.82
2022-08-05T04:38:01.312Z,22.00
2022-08-05T04:40:54.609Z,22.20
2022-08-05T04:44:01.919Z,22.41
2022-08-05T04:47:20.101Z,22.60
2022-08-05T04:50:37.376Z,22.80
2022-08-05T04:53:57.852Z,23.02
2022-08-05T04:57:08.819Z,23.22
2022-08-05T05:00:17.937Z,23.45
2022-08-05T05:03:25.109Z,23.67
2022-08-05T05:06:49.333Z,23.90
2022-08-05T05:10:06.667Z,24.13
2022-08-05T05:13:16.969Z,24.28
2022-08-05T05:16:24.790Z,24.51
2022-08-05T05:19:44.150Z,24.71
2022-08-05T05:22:54.535Z,24.87
2022-08-05T05:26:01.808Z,25.06
2022-08-05T05:29:10.134Z,25.27
2022-08-05T05:32:22.196Z,25.50
2022-08-05T05:35:34.207Z,25.70
2022-08-05T05:38:45.367Z,25.87
2022-08-05T05:41:54.894Z,26.05
2022-08-05T05:45:03.193Z,26.23
2022-08-05T05:48:10.729Z,26.39
2022-08-05T05:51:24.556Z,26.58
2022-08-05T05:54:50.341Z,26.76
2022-08-05T05:58:02.022Z,26.94
2022-08-05T06:01:12.945Z,27.13
2022-08-05T06:04:22.648Z,27.25
2022-08-05T06:07:41.558Z,27.47
2022-08-05T06:10:52.542Z,27.66
2022-08-05T06:14:00.678Z,27.82
2022-08-05T06:17:22.076Z,28.06
2022-08-05T06:20:33.234Z,28.29
2022-08-05T06:23:44.633Z,28.49
2022-08-05T06:26:53.300Z,28.65
2022-08-05T06:30:04.259Z,28.79
2022-08-05T06:33:33.104Z,28.90
2022-08-05T06:36:57.904Z,29.06
2022-08-05T06:40:10.986Z,29.18
2022-08-05T06:43:58.839Z,29.29
2022-08-05T06:46:46.972Z,29.43
2022-08-05T06:50:00.726Z,29.46
2022-08-05T06:53:22.410Z,29.56
2022-08-05T06:56:34.887Z,29.65
2022-08-05T06:59:55.094Z,29.75
2022-08-05T07:03:05.449Z,29.86
2022-08-05T07:06:19.264Z,29.92
2022-08-05T07:09:32.357Z,30.00
2022-08-05T07:13:02.395Z,30.10
2022-08-05T07:18:02.125Z,30.24
2022-08-05T07:23:26.319Z,30.46
2022-08-05T07:26:36.979Z,30.58
2022-08-05T07:30:23.976Z,30.68
2022-08-05T07:33:15.910Z,30.77
2022-08-05T07:36:25.016Z,30.92
2022-08-05T07:40:04.225Z,31.03
2022-08-05T07:43:07.375Z,31.16
2022-08-05T07:46:24.984Z,31.26
2022-08-05T07:49:33.127Z,31.36
2022-08-05T07:52:49.301Z,31.53
2022-08-05T07:56:06.210Z,31.78
2022-08-05T07:59:38.653Z,32.08
2022-08-05T08:03:14.707Z,32.20
2022-08-05T08:06:16.073Z,32.31
2022-08-05T08:09:24.410Z,32.39
2022-08-05T08:12:49.540Z,32.54
2022-08-05T08:16:42.917Z,32.68
2022-08-05T08:20:22.150Z,32.86
2022-08-05T08:22:56.184Z,33.10
2022-08-05T08:26:04.628Z,33.20
2022-08-05T08:29:29.432Z,33.29
2022-08-05T08:32:41.721Z,33.43
2022-08-05T08:35:53.166Z,33.59
2022-08-05T08:39:17.651Z,33.77
2022-08-05T08:42:34.187Z,33.89
2022-08-05T08:45:48.104Z,34.07
2022-08-05T08:50:05.840Z,34.24
2022-08-05T08:52:31.143Z,34.46
2022-08-05T08:56:03.919Z,34.65
2022-08-05T08:59:14.901Z,34.75
2022-08-05T09:02:31.245Z,34.88
2022-08-05T09:06:07.917Z,35.02
2022-08-05T09:09:09.720Z,35.06
2022-08-05T09:12:20.481Z,35.27
2022-08-05T09:15:37.108Z,35.43
2022-08-05T09:18:44.586Z,35.62
2022-08-05T09:22:22.290Z,35.85
2022-08-05T09:25:24.388Z,36.22
2022-08-05T09:28:50.630Z,36.58
2022-08-05T09:32:42.299Z,36.85
2022-08-05T09:35:36.683Z,37.24
2022-08-05T09:38:58.539Z,37.50
2022-08-05T09:42:08.404Z,37.82
2022-08-05T09:46:06.413Z,37.98
2022-08-05T09:49:06.454Z,38.14
2022-08-05T09:52:25.655Z,38.22
2022-08-05T09:55:57.087Z,38.50
2022-08-05T09:59:08.609Z,38.82
2022-08-05T10:02:31.431Z,39.01
2022-08-05T10:05:41.788Z,39.11
2022-08-05T10:08:50.300Z,39.03
2022-08-05T10:12:18.683Z,39.04
2022-08-05T10:15:41.378Z,39.09
2022-08-05T10:18:48.978Z,39.08
2022-08-05T10:21:59.014Z,38.96
2022-08-05T10:25:07.629Z,38.69
2022-08-05T10:28:19.151Z,38.67
2022-08-05T10:33:02.201Z,38.59
2022-08-05T10:35:07.200Z,38.44
2022-08-05T10:38:15.971Z,38.45
2022-08-05T10:41:44.901Z,38.42
2022-08-05T10:44:57.633Z,38.57
2022-08-05T10:48:52.741Z,38.83
2022-08-05T10:52:19.889Z,39.02
2022-08-05T10:55:27.979Z,39.28
2022-08-05T10:58:36.194Z,39.26
2022-08-05T11:02:14.162Z,39.08
2022-08-05T11:05:39.674Z,39.04
2022-08-05T11:09:24.499Z,39.09
2022-08-05T11:12:54.385Z,39.46
2022-08-05T11:16:47.730Z,39.90
2022-08-05T11:20:17.529Z,39.89
2022-08-05T11:24:02.502Z,39.93
2022-08-05T11:27:45.763Z,39.71
2022-08-05T11:31:53.979Z,39.40
2022-08-05T11:35:06.380Z,39.32
2022-08-05T11:38:29.464Z,39.50
2022-08-05T11:42:02.010Z,39.78
2022-08-05T11:45:14.283Z,40.15
2022-08-05T11:48:34.480Z,40.46
2022-08-05T11:51:49.534Z,40.52
2022-08-05T11:54:59.037Z,40.46
2022-08-05T11:58:14.574Z,40.32
2022-08-05T12:01:25.478Z,40.22
2022-08-05T12:04:41.518Z,40.25
2022-08-05T12:08:03.610Z,40.40
2022-08-05T12:11:21.972Z,40.46
2022-08-05T12:14:39.203Z,40.51
2022-08-05T12:18:03.823Z,40.64
2022-08-05T12:21:20.208Z,40.85
2022-08-05T12:24:28.328Z,40.91
2022-08-05T12:27:53.199Z,40.79
2022-08-05T12:31:02.078Z,40.94
2022-08-05T12:34:20.669Z,41.11
2022-08-05T12:37:31.941Z,40.97
2022-08-05T12:40:45.024Z,40.84
2022-08-05T12:43:55.312Z,40.64
2022-08-05T12:47:04.878Z,40.60
2022-08-05T12:50:19.752Z,40.67
2022-08-05T12:53:37.104Z,40.59
2022-08-05T12:56:51.584Z,40.27
2022-08-05T13:01:58.204Z,39.98
2022-08-05T13:03:33.580Z,39.85
2022-08-05T13:06:51.473Z,39.51
2022-08-05T13:10:01.114Z,39.47
2022-08-05T13:13:09.796Z,39.74
2022-08-05T13:16:48.823Z,40.06
2022-08-05T13:20:06.511Z,40.31
2022-08-05T13:23:16.354Z,40.40
2022-08-05T13:26:30.192Z,40.44
2022-08-05T13:29:38.089Z,40.58
2022-08-05T13:32:50.584Z,40.84
2022-08-05T13:36:01.954Z,41.01
2022-08-05T13:40:13.638Z,41.03
2022-08-05T13:42:44.033Z,41.29
2022-08-05T13:45:51.637Z,41.35
2022-08-05T13:49:00.673Z,41.45
2022-08-05T13:52:17.116Z,41.60
2022-08-05T13:55:41.956Z,41.84
2022-08-05T13:59:06.201Z,41.89
2022-08-05T14:02:29.764Z,41.84
2022-08-05T14:06:04.942Z,41.88
2022-08-05T14:09:08.399Z,41.78
2022-08-05T14:12:17.387Z,41.99
2022-08-05T14:16:07.500Z,41.99
2022-08-05T14:19:04.432Z,41.90
2022-08-05T14:22:12.623Z,41.51
2022-08-05T14:25:22.465Z,41.01
2022-08-05T14:28:31.576Z,40.77
2022-08-05T14:32:02.333Z,40.92
2022-08-05T14:35:11.381Z,40.79
2022-08-05T14:38:33.212Z,40.56
2022-08-05T14:42:02.416Z,40.03
2022-08-05T14:45:12.486Z,39.68
2022-08-05T14:48:32.285Z,39.20
2022-08-05T14:51:42.425Z,38.99
2022-08-05T14:54:53.444Z,38.77
2022-08-05T14:58:01.068Z,38.63
2022-08-05T15:01:24.185Z,38.57
2022-08-05T15:04:47.979Z,38.31
2022-08-05T15:08:06.447Z,38.14
2022-08-05T15:11:24.687Z,38.11
2022-08-05T15:14:51.978Z,38.04
2022-08-05T15:18:03.908Z,38.00
2022-08-05T15:21:20.871Z,37.98
2022-08-05T15:24:31.457Z,38.01
2022-08-05T15:27:38.930Z,38.03
2022-08-05T15:30:53.393Z,38.14
2022-08-05T15:34:18.340Z,38.11
2022-08-05T15:38:32.421Z,37.91
2022-08-05T15:41:22.937Z,37.65
2022-08-05T15:44:26.346Z,37.56
2022-08-05T15:47:35.885Z,37.18
2022-08-05T15:50:46.445Z,36.36
2022-08-05T15:53:53.918Z,35.45
2022-08-05T15:56:59.653Z,34.54
2022-08-05T16:00:13.042Z,34.06
2022-08-05T16:03:24.457Z,33.67
2022-08-05T16:06:33.068Z,33.38
2022-08-05T16:09:42.150Z,33.12
2022-08-05T16:12:51.592Z,32.86
2022-08-05T16:15:59.905Z,32.70
2022-08-05T16:19:07.582Z,32.50
2022-08-05T16:22:17.611Z,32.25
2022-08-05T16:25:34.204Z,32.09
2022-08-05T16:28:42.724Z,31.79
2022-08-05T16:31:57.136Z,31.59
2022-08-05T16:35:10.352Z,31.13
2022-08-05T16:38:25.610Z,30.54
2022-08-05T16:42:14.525Z,30.00
2022-08-05T16:46:02.751Z,29.47
2022-08-05T16:48:35.430Z,29.10
2022-08-05T16:51:51.191Z,28.88
2022-08-05T16:55:02.140Z,28.69
2022-08-05T16:58:12.196Z,28.57
2022-08-05T17:01:22.276Z,28.42
2022-08-05T17:04:32.151Z,28.26
2022-08-05T17:07:47.419Z,28.10
2022-08-05T17:11:04.344Z,27.86
2022-08-05T17:14:34.065Z,27.61
2022-08-05T17:17:44.277Z,27.35
2022-08-05T17:20:51.895Z,27.15
2022-08-05T17:24:04.456Z,27.04
2022-08-05T17:27:16.147Z,26.68
2022-08-05T17:30:28.383Z,26.31
2022-08-05T17:33:48.235Z,25.97
2022-08-05T17:36:58.480Z,25.61
2022-08-05T17:40:10.329Z,25.38
2022-08-05T17:43:18.719Z,25.16
2022-08-05T17:46:46.323Z,24.99
2022-08-05T17:50:04.234Z,24.88
2022-08-05T17:53:18.776Z,24.77
2022-08-05T17:56:29.199Z,24.64
2022-08-05T17:59:37.056Z,24.57
2022-08-05T18:02:47.622Z,24.51
2022-08-05T18:05:55.359Z,24.44
2022-08-05T18:09:09.537Z,24.36
2022-08-05T18:12:24.053Z,24.28
2022-08-05T18:15:34.476Z,24.20
2022-08-05T18:18:47.791Z,24.14
2022-08-05T18:22:09.353Z,24.10
2022-08-05T18:25:18.667Z,24.06
2022-08-05T18:28:28.432Z,24.07
2022-08-05T18:31:36.023Z,24.05
2022-08-05T18:34:43.659Z,24.02
2022-08-05T18:37:53.460Z,23.99
2022-08-05T18:41:57.139Z,23.95
2022-08-05T18:44:35.264Z,23.93
2022-08-05T18:47:59.606Z,23.89
2022-08-05T18:52:04.016Z,23.87
2022-08-05T18:54:52.793Z,23.83
2022-08-05T18:58:03.258Z,23.80
2022-08-05T19:01:17.792Z,23.75
2022-08-05T19:04:29.473Z,23.67
2022-08-05T19:07:45.886Z,23.59
2022-08-05T19:10:54.626Z,23.50
2022-08-05T19:14:15.234Z,23.39
2022-08-05T19:17:59.194Z,23.28
2022-08-05T19:20:59.794Z,23.17
2022-08-05T19:24:13.068Z,23.06
2022-08-05T19:27:20.676Z,22.98
2022-08-05T19:30:29.335Z,22.91
2022-08-05T19:33:38.143Z,22.84
2022-08-05T19:36:48.192Z,22.77
2022-08-05T19:39:56.919Z,22.71
2022-08-05T19:43:07.310Z,22.64
2022-08-05T19:46:16.735Z,22.56
2022-08-05T19:49:38.411Z,22.48
2022-08-05T19:52:47.831Z,22.39
2022-08-05T19:56:15.368Z,22.34
2022-08-05T19:59:55.177Z,22.25
2022-08-05T20:02:51.279Z,22.20
2022-08-05T20:05:59.493Z,22.10
2022-08-05T20:09:22.960Z,22.02
2022-08-05T20:12:32.990Z,21.93
2022-08-05T20:15:52.465Z,21.82
2022-08-05T20:19:04.577Z,21.72
2022-08-05T20:22:12.867Z,21.63
2022-08-05T20:25:20.463Z,21.57
2022-08-05T20:28:31.078Z,21.50
2022-08-05T20:31:50.384Z,21.42
2022-08-05T20:35:01.321Z,21.33
2022-08-05T20:38:08.584Z,21.25
2022-08-05T20:41:17.636Z,21.15
2022-08-05T20:44:38.014Z,21.08
2022-08-05T20:47:45.679Z,21.00
2022-08-05T20:50:56.103Z,20.95
2022-08-05T20:54:03.467Z,20.88
2022-08-05T20:57:14.248Z,20.83
2022-08-05T21:00:44.400Z,20.78
2022-08-05T21:03:50.440Z,20.72
2022-08-05T21:06:58.795Z,20.67
2022-08-05T21:10:09.517Z,20.63
2022-08-05T21:13:26.396Z,20.58
2022-08-05T21:16:49.113Z,20.52
2022-08-05T21:19:57.642Z,20.47
2022-08-05T21:23:07.646Z,20.43
2022-08-05T21:26:15.052Z,20.40
2022-08-05T21:29:23.576Z,20.38
2022-08-05T21:32:34.354Z,20.32
2022-08-05T21:35:43.737Z,20.25
2022-08-05T21:39:04.491Z,20.22
2022-08-05T21:42:30.648Z,20.17
2022-08-05T21:45:56.636Z,20.13
2022-08-05T21:49:08.095Z,20.08
2022-08-05T21:52:27.856Z,20.08
2022-08-05T21:56:00.821Z,20.12
2022-08-05T21:59:07.821Z,20.19
2022-08-05T22:02:15.798Z,20.23
2022-08-05T22:05:27.257Z,20.29
2022-08-05T22:08:35.347Z,20.33
2022-08-05T22:11:46.769Z,20.36
2022-08-05T22:14:54.835Z,20.39
2022-08-05T22:18:01.954Z,20.42
2022-08-05T22:21:19.445Z,20.43
2022-08-05T22:24:56.760Z,20.46
2022-08-05T22:28:08.250Z,20.47
2022-08-05T22:31:19.250Z,20.44
2022-08-05T22:34:28.742Z,20.38
2022-08-05T22:37:58.563Z,20.33
2022-08-05T22:41:07.009Z,20.27
2022-08-05T22:44:19.179Z,20.22
2022-08-05T22:47:29.075Z,20.16
2022-08-05T22:50:37.843Z,20.15
2022-08-05T22:53:55.133Z,20.14
2022-08-05T22:57:03.538Z,20.14
2022-08-05T23:00:18.258Z,20.12
2022-08-05T23:03:58.195Z,20.07
2022-08-05T23:06:55.770Z,20.03
2022-08-05T23:10:04.682Z,20.00
2022-08-05T23:13:15.412Z,19.97
2022-08-05T23:16:44.131Z,19.94
2022-08-05T23:19:56.236Z,19.90
2022-08-05T23:23:08.056Z,19.84
2022-08-05T23:26:16.165Z,19.79
2022-08-05T23:29:25.922Z,19.74
2022-08-05T23:32:33.921Z,19.72
2022-08-05T23:35:42.098Z,19.71
2022-08-05T23:38:49.535Z,19.70
2022-08-05T23:41:57.523Z,19.69
2022-08-05T23:45:14.140Z,19.70
2022-08-05T23:48:23.487Z,19.73
2022-08-05T23:51:52.520Z,19.78
2022-08-05T23:55:05.457Z,19.82
2022-08-05T23:58:32.156Z,19.86
